sensor_id;sensor_type;location;lat;lon;timestamp;P1;durP1;ratioP1;P2;durP2;ratioP2
50291;SDS011;36190;54.980;73.388;2023-06-22T00:01:18;1.67;;;1.10;;
50291;SDS011;36190;54.980;73.388;2023-06-22T00:03:46;2.50;;;1.10;;
50291;SDS011;36190;54.980;73.388;2023-06-22T00:06:13;1.00;;;1.00;;
50291;SDS011;36190;54.980;73.388;2023-06-22T00:08:41;1.25;;;1.15;;
50291;SDS011;36190;54.980;73.388;2023-06-22T00:11:10;1.77;;;1.17;;
50291;SDS011;36190;54.980;73.388;2023-06-22T00:13:38;1.00;;;1.00;;
50291;SDS011;36190;54.980;73.388;2023-06-22T00:16:06;1.05;;;1.00;;
50291;SDS011;36190;54.980;73.388;2023-06-22T00:18:33;1.75;;;1.23;;
50291;SDS011;36190;54.980;73.388;2023-06-22T00:21:01;5.05;;;1.30;;
50291;SDS011;36190;54.980;73.388;2023-06-22T00:23:28;2.13;;;1.30;;
50291;SDS011;36190;54.980;73.388;2023-06-22T00:25:59;2.50;;;1.52;;
50291;SDS011;36190;54.980;73.388;2023-06-22T00:28:28;1.52;;;1.20;;
50291;SDS011;36190;54.980;73.388;2023-06-22T00:30:55;4.28;;;1.85;;
50291;SDS011;36190;54.980;73.388;2023-06-22T00:33:23;2.15;;;1.65;;
50291;SDS011;36190;54.980;73.388;2023-06-22T00:35:50;5.35;;;1.80;;
50291;SDS011;36190;54.980;73.388;2023-06-22T00:38:19;3.28;;;1.60;;
50291;SDS011;36190;54.980;73.388;2023-06-22T00:40:47;3.03;;;1.70;;
50291;SDS011;36190;54.980;73.388;2023-06-22T00:43:14;2.15;;;1.70;;
50291;SDS011;36190;54.980;73.388;2023-06-22T00:45:43;3.38;;;1.70;;
50291;SDS011;36190;54.980;73.388;2023-06-22T00:48:11;3.83;;;1.88;;
50291;SDS011;36190;54.980;73.388;2023-06-22T00:50:40;6.18;;;2.08;;
50291;SDS011;36190;54.980;73.388;2023-06-22T00:53:08;4.47;;;2.20;;
50291;SDS011;36190;54.980;73.388;2023-06-22T00:55:37;4.65;;;1.80;;
50291;SDS011;36190;54.980;73.388;2023-06-22T00:58:07;4.72;;;2.10;;
50291;SDS011;36190;54.980;73.388;2023-06-22T01:00:36;3.15;;;1.88;;
50291;SDS011;36190;54.980;73.388;2023-06-22T01:03:06;6.10;;;2.17;;
50291;SDS011;36190;54.980;73.388;2023-06-22T01:05:34;4.32;;;1.73;;
50291;SDS011;36190;54.980;73.388;2023-06-22T01:08:05;6.70;;;2.08;;
50291;SDS011;36190;54.980;73.388;2023-06-22T01:10:40;3.45;;;1.60;;
50291;SDS011;36190;54.980;73.388;2023-06-22T01:13:16;2.65;;;1.75;;
50291;SDS011;36190;54.980;73.388;2023-06-22T01:15:53;5.13;;;1.88;;
50291;SDS011;36190;54.980;73.388;2023-06-22T01:18:28;4.05;;;1.70;;
50291;SDS011;36190;54.980;73.388;2023-06-22T01:21:01;4.93;;;2.35;;
50291;SDS011;36190;54.980;73.388;2023-06-22T01:23:36;5.40;;;1.85;;
50291;SDS011;36190;54.980;73.388;2023-06-22T01:26:17;4.50;;;1.67;;
50291;SDS011;36190;54.980;73.388;2023-06-22T01:28:49;4.90;;;2.10;;
50291;SDS011;36190;54.980;73.388;2023-06-22T01:31:19;3.97;;;1.75;;
50291;SDS011;36190;54.980;73.388;2023-06-22T01:33:50;4.30;;;1.83;;
50291;SDS011;36190;54.980;73.388;2023-06-22T01:36:20;2.17;;;1.60;;
50291;SDS011;36190;54.980;73.388;2023-06-22T01:38:49;4.85;;;1.95;;
50291;SDS011;36190;54.980;73.388;2023-06-22T01:41:17;4.35;;;1.70;;
50291;SDS011;36190;54.980;73.388;2023-06-22T01:43:46;2.60;;;1.58;;
50291;SDS011;36190;54.980;73.388;2023-06-22T01:46:16;1.95;;;1.63;;
50291;SDS011;36190;54.980;73.388;2023-06-22T01:48:46;7.05;;;1.98;;
50291;SDS011;36190;54.980;73.388;2023-06-22T01:51:14;3.17;;;1.40;;
50291;SDS011;36190;54.980;73.388;2023-06-22T01:53:42;1.80;;;1.35;;
50291;SDS011;36190;54.980;73.388;2023-06-22T01:56:09;3.10;;;1.80;;
50291;SDS011;36190;54.980;73.388;2023-06-22T01:58:37;3.03;;;2.03;;
50291;SDS011;36190;54.980;73.388;2023-06-22T02:01:14;4.50;;;2.10;;
50291;SDS011;36190;54.980;73.388;2023-06-22T02:03:48;2.80;;;1.80;;
50291;SDS011;36190;54.980;73.388;2023-06-22T02:06:25;4.38;;;1.90;;
50291;SDS011;36190;54.980;73.388;2023-06-22T02:09:02;4.32;;;1.90;;
50291;SDS011;36190;54.980;73.388;2023-06-22T02:11:35;3.42;;;1.60;;
50291;SDS011;36190;54.980;73.388;2023-06-22T02:14:04;5.00;;;1.70;;
50291;SDS011;36190;54.980;73.388;2023-06-22T02:16:34;1.70;;;1.30;;
50291;SDS011;36190;54.980;73.388;2023-06-22T02:19:03;3.03;;;1.42;;
50291;SDS011;36190;54.980;73.388;2023-06-22T02:21:31;2.08;;;1.40;;
50291;SDS011;36190;54.980;73.388;2023-06-22T02:23:59;3.78;;;1.55;;
50291;SDS011;36190;54.980;73.388;2023-06-22T02:26:26;2.63;;;1.52;;
50291;SDS011;36190;54.980;73.388;2023-06-22T02:28:54;1.58;;;1.48;;
50291;SDS011;36190;54.980;73.388;2023-06-22T02:31:22;3.00;;;1.55;;
50291;SDS011;36190;54.980;73.388;2023-06-22T02:33:57;3.92;;;1.80;;
50291;SDS011;36190;54.980;73.388;2023-06-22T02:36:25;1.98;;;1.60;;
50291;SDS011;36190;54.980;73.388;2023-06-22T02:38:55;8.02;;;1.90;;
50291;SDS011;36190;54.980;73.388;2023-06-22T02:41:26;2.40;;;1.70;;
50291;SDS011;36190;54.980;73.388;2023-06-22T02:43:54;3.38;;;1.80;;
50291;SDS011;36190;54.980;73.388;2023-06-22T02:46:21;3.97;;;1.60;;
50291;SDS011;36190;54.980;73.388;2023-06-22T02:48:49;3.22;;;1.70;;
50291;SDS011;36190;54.980;73.388;2023-06-22T02:51:18;2.42;;;1.45;;
50291;SDS011;36190;54.980;73.388;2023-06-22T02:53:45;2.33;;;1.50;;
50291;SDS011;36190;54.980;73.388;2023-06-22T02:56:13;4.07;;;1.95;;
50291;SDS011;36190;54.980;73.388;2023-06-22T02:58:41;5.45;;;1.85;;
50291;SDS011;36190;54.980;73.388;2023-06-22T03:01:08;3.13;;;1.50;;
50291;SDS011;36190;54.980;73.388;2023-06-22T03:03:39;4.68;;;1.55;;
50291;SDS011;36190;54.980;73.388;2023-06-22T03:06:06;4.82;;;1.70;;
50291;SDS011;36190;54.980;73.388;2023-06-22T03:08:40;3.53;;;1.45;;
50291;SDS011;36190;54.980;73.388;2023-06-22T03:11:08;2.55;;;1.60;;
50291;SDS011;36190;54.980;73.388;2023-06-22T03:13:35;1.88;;;1.58;;
50291;SDS011;36190;54.980;73.388;2023-06-22T03:16:03;3.33;;;1.85;;
50291;SDS011;36190;54.980;73.388;2023-06-22T03:18:30;3.10;;;1.83;;
50291;SDS011;36190;54.980;73.388;2023-06-22T03:20:58;4.55;;;2.10;;
50291;SDS011;36190;54.980;73.388;2023-06-22T03:23:27;5.95;;;2.30;;
50291;SDS011;36190;54.980;73.388;2023-06-22T03:25:56;3.15;;;1.75;;
50291;SDS011;36190;54.980;73.388;2023-06-22T03:28:23;5.53;;;2.15;;
50291;SDS011;36190;54.980;73.388;2023-06-22T03:30:51;5.03;;;2.20;;
50291;SDS011;36190;54.980;73.388;2023-06-22T03:33:18;4.15;;;2.20;;
50291;SDS011;36190;54.980;73.388;2023-06-22T03:35:46;3.28;;;2.05;;
50291;SDS011;36190;54.980;73.388;2023-06-22T03:38:13;3.40;;;2.03;;
50291;SDS011;36190;54.980;73.388;2023-06-22T03:40:41;5.65;;;2.40;;
50291;SDS011;36190;54.980;73.388;2023-06-22T03:43:10;6.88;;;2.92;;
50291;SDS011;36190;54.980;73.388;2023-06-22T03:45:37;6.22;;;2.40;;
50291;SDS011;36190;54.980;73.388;2023-06-22T03:48:05;4.55;;;2.03;;
50291;SDS011;36190;54.980;73.388;2023-06-22T03:50:33;2.92;;;1.80;;
50291;SDS011;36190;54.980;73.388;2023-06-22T03:53:00;5.15;;;2.13;;
50291;SDS011;36190;54.980;73.388;2023-06-22T03:55:28;6.63;;;2.05;;
50291;SDS011;36190;54.980;73.388;2023-06-22T03:57:55;7.13;;;1.98;;
50291;SDS011;36190;54.980;73.388;2023-06-22T04:00:24;5.10;;;2.10;;
50291;SDS011;36190;54.980;73.388;2023-06-22T04:02:51;7.82;;;2.08;;
50291;SDS011;36190;54.980;73.388;2023-06-22T04:05:19;7.05;;;1.90;;
50291;SDS011;36190;54.980;73.388;2023-06-22T04:07:46;2.75;;;1.85;;
50291;SDS011;36190;54.980;73.388;2023-06-22T04:10:14;3.08;;;1.70;;
50291;SDS011;36190;54.980;73.388;2023-06-22T04:12:41;4.45;;;1.60;;
50291;SDS011;36190;54.980;73.388;2023-06-22T04:15:09;4.13;;;1.45;;
50291;SDS011;36190;54.980;73.388;2023-06-22T04:17:38;1.88;;;1.48;;
50291;SDS011;36190;54.980;73.388;2023-06-22T04:20:06;2.92;;;1.70;;
50291;SDS011;36190;54.980;73.388;2023-06-22T04:22:35;4.07;;;1.55;;
50291;SDS011;36190;54.980;73.388;2023-06-22T04:25:02;1.25;;;1.15;;
50291;SDS011;36190;54.980;73.388;2023-06-22T04:27:31;3.65;;;1.38;;
50291;SDS011;36190;54.980;73.388;2023-06-22T04:29:58;1.75;;;1.38;;
50291;SDS011;36190;54.980;73.388;2023-06-22T04:32:26;4.55;;;1.65;;
50291;SDS011;36190;54.980;73.388;2023-06-22T04:34:55;2.60;;;1.33;;
50291;SDS011;36190;54.980;73.388;2023-06-22T04:37:23;3.63;;;1.48;;
50291;SDS011;36190;54.980;73.388;2023-06-22T04:39:50;2.58;;;1.50;;
50291;SDS011;36190;54.980;73.388;2023-06-22T04:42:18;1.70;;;1.50;;
50291;SDS011;36190;54.980;73.388;2023-06-22T04:44:45;4.57;;;1.65;;
50291;SDS011;36190;54.980;73.388;2023-06-22T04:47:13;2.03;;;1.50;;
50291;SDS011;36190;54.980;73.388;2023-06-22T04:49:40;4.07;;;1.90;;
50291;SDS011;36190;54.980;73.388;2023-06-22T04:52:10;1.95;;;1.40;;
50291;SDS011;36190;54.980;73.388;2023-06-22T04:54:40;2.67;;;1.75;;
50291;SDS011;36190;54.980;73.388;2023-06-22T04:57:13;2.53;;;1.60;;
50291;SDS011;36190;54.980;73.388;2023-06-22T04:59:41;3.47;;;1.60;;
50291;SDS011;36190;54.980;73.388;2023-06-22T05:02:09;3.92;;;1.90;;
50291;SDS011;36190;54.980;73.388;2023-06-22T05:04:37;3.55;;;2.00;;
50291;SDS011;36190;54.980;73.388;2023-06-22T05:07:05;4.13;;;1.92;;
50291;SDS011;36190;54.980;73.388;2023-06-22T05:09:35;2.88;;;1.90;;
50291;SDS011;36190;54.980;73.388;2023-06-22T05:12:03;2.33;;;1.77;;
50291;SDS011;36190;54.980;73.388;2023-06-22T05:14:31;2.92;;;1.65;;
50291;SDS011;36190;54.980;73.388;2023-06-22T05:16:58;2.50;;;1.70;;
50291;SDS011;36190;54.980;73.388;2023-06-22T05:19:29;7.18;;;2.63;;
50291;SDS011;36190;54.980;73.388;2023-06-22T05:21:59;5.65;;;2.50;;
50291;SDS011;36190;54.980;73.388;2023-06-22T05:24:27;4.72;;;2.60;;
50291;SDS011;36190;54.980;73.388;2023-06-22T05:26:56;5.45;;;2.33;;
50291;SDS011;36190;54.980;73.388;2023-06-22T05:29:23;5.63;;;2.65;;
50291;SDS011;36190;54.980;73.388;2023-06-22T05:31:52;5.30;;;2.10;;
50291;SDS011;36190;54.980;73.388;2023-06-22T05:34:19;4.22;;;1.65;;
50291;SDS011;36190;54.980;73.388;2023-06-22T05:36:47;5.95;;;1.60;;
50291;SDS011;36190;54.980;73.388;2023-06-22T05:39:14;2.03;;;1.50;;
50291;SDS011;36190;54.980;73.388;2023-06-22T05:41:42;1.50;;;1.40;;
50291;SDS011;36190;54.980;73.388;2023-06-22T05:44:11;3.17;;;1.90;;
50291;SDS011;36190;54.980;73.388;2023-06-22T05:46:40;4.88;;;1.90;;
50291;SDS011;36190;54.980;73.388;2023-06-22T05:49:09;6.28;;;2.60;;
50291;SDS011;36190;54.980;73.388;2023-06-22T05:51:37;5.40;;;2.50;;
50291;SDS011;36190;54.980;73.388;2023-06-22T05:54:04;5.43;;;2.60;;
50291;SDS011;36190;54.980;73.388;2023-06-22T05:56:33;5.93;;;2.20;;
50291;SDS011;36190;54.980;73.388;2023-06-22T05:59:00;3.75;;;1.80;;
50291;SDS011;36190;54.980;73.388;2023-06-22T06:01:29;5.30;;;1.80;;
50291;SDS011;36190;54.980;73.388;2023-06-22T06:03:59;4.93;;;1.88;;
50291;SDS011;36190;54.980;73.388;2023-06-22T06:06:27;3.72;;;2.00;;
50291;SDS011;36190;54.980;73.388;2023-06-22T06:09:30;2.45;;;1.40;;
50291;SDS011;36190;54.980;73.388;2023-06-22T06:11:58;6.55;;;1.70;;
50291;SDS011;36190;54.980;73.388;2023-06-22T06:14:28;6.43;;;1.90;;
50291;SDS011;36190;54.980;73.388;2023-06-22T06:16:57;3.42;;;1.50;;
50291;SDS011;36190;54.980;73.388;2023-06-22T06:19:24;2.65;;;1.60;;
50291;SDS011;36190;54.980;73.388;2023-06-22T06:21:52;4.80;;;1.73;;
50291;SDS011;36190;54.980;73.388;2023-06-22T06:24:19;4.18;;;1.60;;
50291;SDS011;36190;54.980;73.388;2023-06-22T06:26:47;5.03;;;1.83;;
50291;SDS011;36190;54.980;73.388;2023-06-22T06:29:14;5.18;;;1.95;;
50291;SDS011;36190;54.980;73.388;2023-06-22T06:31:42;3.58;;;1.13;;
50291;SDS011;36190;54.980;73.388;2023-06-22T06:34:11;2.60;;;1.45;;
50291;SDS011;36190;54.980;73.388;2023-06-22T06:36:39;2.92;;;1.40;;
50291;SDS011;36190;54.980;73.388;2023-06-22T06:39:06;2.17;;;1.48;;
50291;SDS011;36190;54.980;73.388;2023-06-22T06:41:35;4.53;;;1.70;;
50291;SDS011;36190;54.980;73.388;2023-06-22T06:44:02;2.80;;;1.50;;
50291;SDS011;36190;54.980;73.388;2023-06-22T06:46:29;3.60;;;1.77;;
50291;SDS011;36190;54.980;73.388;2023-06-22T06:48:57;2.58;;;1.33;;
50291;SDS011;36190;54.980;73.388;2023-06-22T06:51:26;4.43;;;1.88;;
50291;SDS011;36190;54.980;73.388;2023-06-22T06:53:53;2.75;;;1.42;;
50291;SDS011;36190;54.980;73.388;2023-06-22T06:56:21;2.53;;;1.48;;
50291;SDS011;36190;54.980;73.388;2023-06-22T06:58:49;4.28;;;1.85;;
50291;SDS011;36190;54.980;73.388;2023-06-22T07:01:17;2.72;;;1.75;;
50291;SDS011;36190;54.980;73.388;2023-06-22T07:03:45;4.22;;;1.83;;
50291;SDS011;36190;54.980;73.388;2023-06-22T07:06:13;2.88;;;1.73;;
50291;SDS011;36190;54.980;73.388;2023-06-22T07:08:43;3.28;;;1.70;;
50291;SDS011;36190;54.980;73.388;2023-06-22T07:11:10;2.15;;;1.77;;
50291;SDS011;36190;54.980;73.388;2023-06-22T07:13:38;5.88;;;2.20;;
50291;SDS011;36190;54.980;73.388;2023-06-22T07:16:05;5.65;;;1.92;;
50291;SDS011;36190;54.980;73.388;2023-06-22T07:18:32;2.83;;;1.77;;
50291;SDS011;36190;54.980;73.388;2023-06-22T07:21:00;4.82;;;1.98;;
50291;SDS011;36190;54.980;73.388;2023-06-22T07:23:29;5.22;;;1.80;;
50291;SDS011;36190;54.980;73.388;2023-06-22T07:25:58;2.67;;;1.60;;
50291;SDS011;36190;54.980;73.388;2023-06-22T07:28:27;7.93;;;1.98;;
50291;SDS011;36190;54.980;73.388;2023-06-22T07:30:56;3.42;;;2.00;;
50291;SDS011;36190;54.980;73.388;2023-06-22T07:33:23;3.45;;;1.80;;
50291;SDS011;36190;54.980;73.388;2023-06-22T07:35:51;1.73;;;1.50;;
50291;SDS011;36190;54.980;73.388;2023-06-22T07:38:18;2.72;;;1.60;;
50291;SDS011;36190;54.980;73.388;2023-06-22T07:40:46;3.67;;;1.77;;
50291;SDS011;36190;54.980;73.388;2023-06-22T07:43:15;2.30;;;1.70;;
50291;SDS011;36190;54.980;73.388;2023-06-22T07:45:48;1.48;;;1.30;;
50291;SDS011;36190;54.980;73.388;2023-06-22T07:48:17;4.03;;;1.80;;
50291;SDS011;36190;54.980;73.388;2023-06-22T07:50:45;3.85;;;1.73;;
50291;SDS011;36190;54.980;73.388;2023-06-22T07:53:12;4.45;;;1.60;;
50291;SDS011;36190;54.980;73.388;2023-06-22T07:55:40;4.40;;;1.55;;
50291;SDS011;36190;54.980;73.388;2023-06-22T07:58:07;3.15;;;1.20;;
50291;SDS011;36190;54.980;73.388;2023-06-22T08:00:36;3.90;;;1.88;;
50291;SDS011;36190;54.980;73.388;2023-06-22T08:03:04;1.35;;;1.23;;
50291;SDS011;36190;54.980;73.388;2023-06-22T08:05:32;3.85;;;1.30;;
50291;SDS011;36190;54.980;73.388;2023-06-22T08:07:59;2.05;;;1.42;;
50291;SDS011;36190;54.980;73.388;2023-06-22T08:10:27;3.97;;;1.58;;
50291;SDS011;36190;54.980;73.388;2023-06-22T08:12:54;2.63;;;1.50;;
50291;SDS011;36190;54.980;73.388;2023-06-22T08:15:22;2.85;;;1.77;;
50291;SDS011;36190;54.980;73.388;2023-06-22T08:17:51;2.08;;;1.33;;
50291;SDS011;36190;54.980;73.388;2023-06-22T08:20:18;1.85;;;1.40;;
50291;SDS011;36190;54.980;73.388;2023-06-22T08:22:46;2.22;;;1.65;;
50291;SDS011;36190;54.980;73.388;2023-06-22T08:25:13;4.05;;;1.80;;
50291;SDS011;36190;54.980;73.388;2023-06-22T08:27:44;2.70;;;1.95;;
50291;SDS011;36190;54.980;73.388;2023-06-22T08:30:13;3.33;;;1.60;;
50291;SDS011;36190;54.980;73.388;2023-06-22T08:32:41;2.30;;;1.60;;
50291;SDS011;36190;54.980;73.388;2023-06-22T08:35:10;2.90;;;1.73;;
50291;SDS011;36190;54.980;73.388;2023-06-22T08:37:38;2.70;;;1.58;;
50291;SDS011;36190;54.980;73.388;2023-06-22T08:40:06;1.50;;;1.38;;
50291;SDS011;36190;54.980;73.388;2023-06-22T08:42:35;2.83;;;1.55;;
50291;SDS011;36190;54.980;73.388;2023-06-22T08:45:03;3.45;;;1.60;;
50291;SDS011;36190;54.980;73.388;2023-06-22T08:47:31;2.42;;;1.83;;
50291;SDS011;36190;54.980;73.388;2023-06-22T08:49:58;4.18;;;2.15;;
50291;SDS011;36190;54.980;73.388;2023-06-22T08:52:29;4.65;;;2.20;;
50291;SDS011;36190;54.980;73.388;2023-06-22T08:54:56;5.32;;;2.30;;
50291;SDS011;36190;54.980;73.388;2023-06-22T08:57:24;3.80;;;2.20;;
50291;SDS011;36190;54.980;73.388;2023-06-22T08:59:52;5.85;;;2.45;;
50291;SDS011;36190;54.980;73.388;2023-06-22T09:02:23;3.63;;;1.70;;
50291;SDS011;36190;54.980;73.388;2023-06-22T09:04:50;3.58;;;2.03;;
50291;SDS011;36190;54.980;73.388;2023-06-22T09:07:21;3.25;;;1.90;;
50291;SDS011;36190;54.980;73.388;2023-06-22T09:09:51;4.97;;;1.80;;
50291;SDS011;36190;54.980;73.388;2023-06-22T09:12:20;2.92;;;1.60;;
50291;SDS011;36190;54.980;73.388;2023-06-22T09:14:51;1.50;;;1.40;;
50291;SDS011;36190;54.980;73.388;2023-06-22T09:17:18;2.92;;;1.30;;
50291;SDS011;36190;54.980;73.388;2023-06-22T09:19:46;2.95;;;1.40;;
50291;SDS011;36190;54.980;73.388;2023-06-22T09:22:14;4.03;;;1.50;;
50291;SDS011;36190;54.980;73.388;2023-06-22T09:24:41;2.95;;;1.67;;
50291;SDS011;36190;54.980;73.388;2023-06-22T09:27:10;6.38;;;1.67;;
50291;SDS011;36190;54.980;73.388;2023-06-22T09:29:38;3.10;;;1.45;;
50291;SDS011;36190;54.980;73.388;2023-06-22T09:32:06;2.20;;;1.60;;
50291;SDS011;36190;54.980;73.388;2023-06-22T09:34:34;5.53;;;1.92;;
50291;SDS011;36190;54.980;73.388;2023-06-22T09:37:01;2.92;;;1.35;;
50291;SDS011;36190;54.980;73.388;2023-06-22T09:39:29;5.85;;;1.60;;
50291;SDS011;36190;54.980;73.388;2023-06-22T09:41:57;5.10;;;1.60;;
50291;SDS011;36190;54.980;73.388;2023-06-22T09:44:27;1.83;;;1.40;;
50291;SDS011;36190;54.980;73.388;2023-06-22T09:46:54;2.20;;;1.60;;
50291;SDS011;36190;54.980;73.388;2023-06-22T09:49:22;3.97;;;1.50;;
50291;SDS011;36190;54.980;73.388;2023-06-22T09:51:49;1.98;;;1.38;;
50291;SDS011;36190;54.980;73.388;2023-06-22T09:54:17;6.38;;;1.73;;
50291;SDS011;36190;54.980;73.388;2023-06-22T09:56:45;2.45;;;1.50;;
50291;SDS011;36190;54.980;73.388;2023-06-22T09:59:12;1.30;;;1.17;;
50291;SDS011;36190;54.980;73.388;2023-06-22T10:01:41;2.20;;;1.30;;
50291;SDS011;36190;54.980;73.388;2023-06-22T10:04:09;4.80;;;1.63;;
50291;SDS011;36190;54.980;73.388;2023-06-22T10:06:36;1.60;;;1.08;;
50291;SDS011;36190;54.980;73.388;2023-06-22T10:09:05;2.50;;;1.50;;
50291;SDS011;36190;54.980;73.388;2023-06-22T10:11:33;2.00;;;1.60;;
50291;SDS011;36190;54.980;73.388;2023-06-22T10:14:02;1.50;;;1.40;;
50291;SDS011;36190;54.980;73.388;2023-06-22T10:16:32;1.42;;;1.33;;
50291;SDS011;36190;54.980;73.388;2023-06-22T10:19:02;1.60;;;1.40;;
50291;SDS011;36190;54.980;73.388;2023-06-22T10:21:29;2.50;;;1.48;;
50291;SDS011;36190;54.980;73.388;2023-06-22T10:23:58;3.88;;;2.10;;
50291;SDS011;36190;54.980;73.388;2023-06-22T10:26:31;4.90;;;2.20;;
50291;SDS011;36190;54.980;73.388;2023-06-22T10:28:58;3.33;;;1.80;;
50291;SDS011;36190;54.980;73.388;2023-06-22T10:31:26;4.25;;;2.30;;
50291;SDS011;36190;54.980;73.388;2023-06-22T10:33:54;6.22;;;2.25;;
50291;SDS011;36190;54.980;73.388;2023-06-22T10:36:23;6.57;;;2.78;;
50291;SDS011;36190;54.980;73.388;2023-06-22T10:38:50;7.78;;;2.53;;
50291;SDS011;36190;54.980;73.388;2023-06-22T10:41:18;4.03;;;2.30;;
50291;SDS011;36190;54.980;73.388;2023-06-22T10:43:46;5.63;;;2.53;;
50291;SDS011;36190;54.980;73.388;2023-06-22T10:46:13;3.70;;;1.83;;
50291;SDS011;36190;54.980;73.388;2023-06-22T10:48:41;3.42;;;2.03;;
50291;SDS011;36190;54.980;73.388;2023-06-22T10:51:08;4.53;;;1.88;;
50291;SDS011;36190;54.980;73.388;2023-06-22T10:53:37;3.75;;;1.63;;
50291;SDS011;36190;54.980;73.388;2023-06-22T10:56:05;3.33;;;1.52;;
50291;SDS011;36190;54.980;73.388;2023-06-22T10:58:32;3.15;;;1.40;;
50291;SDS011;36190;54.980;73.388;2023-06-22T11:00:59;2.30;;;1.17;;
50291;SDS011;36190;54.980;73.388;2023-06-22T11:03:28;4.00;;;1.60;;
50291;SDS011;36190;54.980;73.388;2023-06-22T11:05:55;2.63;;;1.38;;
50291;SDS011;36190;54.980;73.388;2023-06-22T11:08:23;2.58;;;1.40;;
50291;SDS011;36190;54.980;73.388;2023-06-22T11:10:52;2.47;;;1.48;;
50291;SDS011;36190;54.980;73.388;2023-06-22T11:13:19;4.82;;;2.00;;
50291;SDS011;36190;54.980;73.388;2023-06-22T11:15:47;3.65;;;2.10;;
50291;SDS011;36190;54.980;73.388;2023-06-22T11:18:14;7.13;;;2.40;;
50291;SDS011;36190;54.980;73.388;2023-06-22T11:20:42;3.72;;;1.80;;
50291;SDS011;36190;54.980;73.388;2023-06-22T11:23:09;5.18;;;2.05;;
50291;SDS011;36190;54.980;73.388;2023-06-22T11:25:37;2.53;;;1.67;;
50291;SDS011;36190;54.980;73.388;2023-06-22T11:28:08;3.50;;;1.90;;
50291;SDS011;36190;54.980;73.388;2023-06-22T11:30:36;6.18;;;1.75;;
50291;SDS011;36190;54.980;73.388;2023-06-22T11:33:03;5.80;;;2.15;;
50291;SDS011;36190;54.980;73.388;2023-06-22T11:35:31;9.93;;;1.90;;
50291;SDS011;36190;54.980;73.388;2023-06-22T11:37:58;2.75;;;1.40;;
50291;SDS011;36190;54.980;73.388;2023-06-22T11:40:25;2.20;;;1.30;;
50291;SDS011;36190;54.980;73.388;2023-06-22T11:42:53;4.13;;;1.45;;
50291;SDS011;36190;54.980;73.388;2023-06-22T11:45:22;2.72;;;1.63;;
50291;SDS011;36190;54.980;73.388;2023-06-22T11:47:49;3.22;;;1.58;;
50291;SDS011;36190;54.980;73.388;2023-06-22T11:50:17;4.53;;;1.60;;
50291;SDS011;36190;54.980;73.388;2023-06-22T11:52:44;3.50;;;2.00;;
50291;SDS011;36190;54.980;73.388;2023-06-22T11:55:12;6.78;;;1.95;;
50291;SDS011;36190;54.980;73.388;2023-06-22T11:57:54;4.38;;;2.03;;
50291;SDS011;36190;54.980;73.388;2023-06-22T12:02:52;7.45;;;2.00;;
50291;SDS011;36190;54.980;73.388;2023-06-22T12:05:20;7.53;;;2.17;;
50291;SDS011;36190;54.980;73.388;2023-06-22T12:07:47;4.30;;;2.00;;
50291;SDS011;36190;54.980;73.388;2023-06-22T12:10:15;5.22;;;2.15;;
50291;SDS011;36190;54.980;73.388;2023-06-22T12:12:43;3.47;;;2.10;;
50291;SDS011;36190;54.980;73.388;2023-06-22T12:15:10;5.07;;;1.90;;
50291;SDS011;36190;54.980;73.388;2023-06-22T12:17:39;2.22;;;1.70;;
50291;SDS011;36190;54.980;73.388;2023-06-22T12:20:07;4.47;;;1.80;;
50291;SDS011;36190;54.980;73.388;2023-06-22T12:22:35;6.78;;;2.60;;
50291;SDS011;36190;54.980;73.388;2023-06-22T12:25:04;4.97;;;2.00;;
50291;SDS011;36190;54.980;73.388;2023-06-22T12:27:32;7.57;;;2.30;;
50291;SDS011;36190;54.980;73.388;2023-06-22T12:29:59;3.00;;;1.80;;
50291;SDS011;36190;54.980;73.388;2023-06-22T12:32:27;14.77;;;2.95;;
50291;SDS011;36190;54.980;73.388;2023-06-22T12:34:56;11.05;;;2.50;;
50291;SDS011;36190;54.980;73.388;2023-06-22T12:37:24;4.93;;;1.85;;
50291;SDS011;36190;54.980;73.388;2023-06-22T12:39:53;4.30;;;1.88;;
50291;SDS011;36190;54.980;73.388;2023-06-22T12:42:21;4.15;;;1.80;;
50291;SDS011;36190;54.980;73.388;2023-06-22T12:44:48;4.45;;;1.92;;
50291;SDS011;36190;54.980;73.388;2023-06-22T12:47:16;4.30;;;1.77;;
50291;SDS011;36190;54.980;73.388;2023-06-22T12:49:43;4.50;;;1.90;;
50291;SDS011;36190;54.980;73.388;2023-06-22T12:52:12;3.88;;;2.00;;
50291;SDS011;36190;54.980;73.388;2023-06-22T12:54:39;3.50;;;2.05;;
50291;SDS011;36190;54.980;73.388;2023-06-22T12:57:07;3.63;;;2.10;;
50291;SDS011;36190;54.980;73.388;2023-06-22T12:59:34;4.55;;;2.13;;
50291;SDS011;36190;54.980;73.388;2023-06-22T13:02:02;3.88;;;2.10;;
50291;SDS011;36190;54.980;73.388;2023-06-22T13:04:30;4.80;;;2.40;;
50291;SDS011;36190;54.980;73.388;2023-06-22T13:06:57;6.45;;;2.53;;
50291;SDS011;36190;54.980;73.388;2023-06-22T13:09:26;6.75;;;2.80;;
50291;SDS011;36190;54.980;73.388;2023-06-22T13:11:54;6.68;;;2.70;;
50291;SDS011;36190;54.980;73.388;2023-06-22T13:14:21;8.73;;;2.70;;
50291;SDS011;36190;54.980;73.388;2023-06-22T13:16:49;4.68;;;2.13;;
50291;SDS011;36190;54.980;73.388;2023-06-22T13:19:16;4.45;;;2.13;;
50291;SDS011;36190;54.980;73.388;2023-06-22T13:21:44;4.78;;;2.50;;
50291;SDS011;36190;54.980;73.388;2023-06-22T13:24:11;7.60;;;2.40;;
50291;SDS011;36190;54.980;73.388;2023-06-22T13:26:40;6.20;;;2.60;;
50291;SDS011;36190;54.980;73.388;2023-06-22T13:29:08;5.65;;;2.33;;
50291;SDS011;36190;54.980;73.388;2023-06-22T13:31:35;5.68;;;2.40;;
50291;SDS011;36190;54.980;73.388;2023-06-22T13:34:03;5.43;;;2.47;;
50291;SDS011;36190;54.980;73.388;2023-06-22T13:36:31;4.57;;;2.50;;
50291;SDS011;36190;54.980;73.388;2023-06-22T13:38:59;3.60;;;1.95;;
50291;SDS011;36190;54.980;73.388;2023-06-22T13:41:26;2.92;;;1.70;;
50291;SDS011;36190;54.980;73.388;2023-06-22T13:43:55;3.40;;;1.80;;
50291;SDS011;36190;54.980;73.388;2023-06-22T13:46:22;3.00;;;1.70;;
50291;SDS011;36190;54.980;73.388;2023-06-22T13:48:50;1.63;;;1.50;;
50291;SDS011;36190;54.980;73.388;2023-06-22T13:51:17;1.90;;;1.50;;
50291;SDS011;36190;54.980;73.388;2023-06-22T13:53:45;4.28;;;1.73;;
50291;SDS011;36190;54.980;73.388;2023-06-22T13:56:12;3.05;;;1.40;;
50291;SDS011;36190;54.980;73.388;2023-06-22T13:58:40;4.28;;;2.65;;
50291;SDS011;36190;54.980;73.388;2023-06-22T14:01:09;4.32;;;1.73;;
50291;SDS011;36190;54.980;73.388;2023-06-22T14:03:37;3.88;;;1.83;;
50291;SDS011;36190;54.980;73.388;2023-06-22T14:06:04;2.72;;;1.70;;
50291;SDS011;36190;54.980;73.388;2023-06-22T14:08:32;4.68;;;1.77;;
50291;SDS011;36190;54.980;73.388;2023-06-22T14:10:59;3.60;;;1.73;;
50291;SDS011;36190;54.980;73.388;2023-06-22T14:13:26;6.15;;;1.95;;
50291;SDS011;36190;54.980;73.388;2023-06-22T14:15:54;6.93;;;1.75;;
50291;SDS011;36190;54.980;73.388;2023-06-22T14:18:23;3.42;;;1.70;;
50291;SDS011;36190;54.980;73.388;2023-06-22T14:20:50;5.78;;;2.22;;
50291;SDS011;36190;54.980;73.388;2023-06-22T14:23:18;4.85;;;2.13;;
50291;SDS011;36190;54.980;73.388;2023-06-22T14:25:45;6.32;;;2.30;;
50291;SDS011;36190;54.980;73.388;2023-06-22T14:28:13;5.53;;;2.10;;
50291;SDS011;36190;54.980;73.388;2023-06-22T14:30:41;3.90;;;2.10;;
50291;SDS011;36190;54.980;73.388;2023-06-22T14:33:09;6.05;;;2.03;;
50291;SDS011;36190;54.980;73.388;2023-06-22T14:35:39;6.88;;;2.45;;
50291;SDS011;36190;54.980;73.388;2023-06-22T14:38:07;6.75;;;2.33;;
50291;SDS011;36190;54.980;73.388;2023-06-22T14:40:34;4.80;;;2.17;;
50291;SDS011;36190;54.980;73.388;2023-06-22T14:43:01;5.47;;;2.28;;